Time;durP1;ratioP1;P1;durP2;ratioP2;P2;SDS_P1;SDS_P2;PMS_P1;PMS_P2;Temp;Humidity;BMP_temperature;BMP_pressure;BME280_temperature;BME280_humidity;BME280_pressure;Samples;Min_cycle;Max_cycle;Signal;HPM_P1;HPM_P2
2023/03/25 00:01:48;;;;;;;;;;;;;;;3.74;100.00;99572.94;5093770;28;855;-67
2023/03/25 00:04:16;;;;;;;;;;;;;;;3.65;100.00;99569.63;5093832;28;851;-67
2023/03/25 00:06:42;;;;;;;;;;;;;;;3.67;100.00;99572.81;5093604;28;831;-67
2023/03/25 00:09:09;;;;;;;;;;;;;;;3.69;100.00;99573.22;5093941;28;1014;-69
2023/03/25 00:11:35;;;;;;;;;;;;;;;3.67;100.00;99562.66;5093439;28;1329;-70
2023/03/25 00:14:03;;;;;;;;;;;;;;;3.73;100.00;99565.88;5093564;28;886;-69
2023/03/25 00:16:30;;;;;;;;;;;;;;;3.80;100.00;99557.03;5093486;28;882;-70
2023/03/25 00:18:58;;;;;;;;;;;;;;;3.83;100.00;99561.75;5093459;28;1010;-68
2023/03/25 00:21:25;;;;;;;;;;;;;;;3.86;100.00;99561.03;5093435;28;886;-67
2023/03/25 00:23:51;;;;;;;;;;;;;;;3.96;100.00;99552.22;5093568;28;816;-67
2023/03/25 00:26:17;;;;;;;;;;;;;;;3.94;100.00;99551.81;5093230;28;914;-67
2023/03/25 00:28:44;;;;;;;;;;;;;;;4.02;100.00;99558.19;5093209;28;851;-68
2023/03/25 00:31:11;;;;;;;;;;;;;;;4.12;100.00;99548.56;5093202;28;859;-68
2023/03/25 00:33:40;;;;;;;;;;;;;;;4.00;100.00;99555.03;5093199;28;816;-69
2023/03/25 00:36:07;;;;;;;;;;;;;;;3.89;100.00;99552.91;5093066;28;914;-70
2023/03/25 00:38:34;;;;;;;;;;;;;;;3.92;100.00;99548.63;5093182;28;847;-69
2023/03/25 00:41:24;;;;;;;;;;;;;;;3.84;100.00;99542.28;5092912;28;1886;-68
2023/03/25 00:43:54;;;;;;;;;;;;;;;3.89;100.00;99543.91;5093211;28;1308;-67
2023/03/25 00:46:22;;;;;;;;;;;;;;;3.86;100.00;99534.50;5092984;28;899;-67
2023/03/25 00:48:49;;;;;;;;;;;;;;;3.82;100.00;99533.63;5092782;28;839;-67
2023/03/25 00:51:20;;;;;;;;;;;;;;;3.87;100.00;99532.53;5092900;28;832;-67
2023/03/25 00:53:55;;;;;;;;;;;;;;;3.93;100.00;99527.56;5092764;28;872;-67
2023/03/25 00:56:23;;;;;;;;;;;;;;;3.96;100.00;99532.31;5092653;28;843;-67
2023/03/25 00:58:49;;;;;;;;;;;;;;;3.87;100.00;99527.06;5091787;28;882;-67
2023/03/25 01:01:22;;;;;;;;;;;;;;;3.83;100.00;99520.75;5092553;28;1953;-67
2023/03/25 01:03:56;;;;;;;;;;;;;;;3.58;100.00;99490.22;5092893;28;894;-67
2023/03/25 01:06:27;;;;;;;;;;;;;;;3.77;100.00;99520.25;5092587;28;858;-67
2023/03/25 01:08:56;;;;;;;;;;;;;;;3.75;100.00;99513.56;5092494;28;1064;-67
2023/03/25 01:11:25;;;;;;;;;;;;;;;3.74;100.00;99515.53;5092427;28;1235;-67
2023/03/25 01:13:53;;;;;;;;;;;;;;;3.80;100.00;99521.50;5092478;28;854;-67
2023/03/25 01:16:20;;;;;;;;;;;;;;;3.81;100.00;99515.63;5092425;28;812;-67
2023/03/25 01:18:46;;;;;;;;;;;;;;;3.78;100.00;99512.88;5092272;28;855;-67
2023/03/25 01:21:13;;;;;;;;;;;;;;;3.76;100.00;99515.16;5092282;28;1972;-69
2023/03/25 01:23:40;;;;;;;;;;;;;;;3.75;100.00;99514.34;5073908;28;1178;-69
2023/03/25 01:26:06;;;;;;;;;;;;;;;3.77;100.00;99516.72;5092184;28;831;-69
2023/03/25 01:28:33;;;;;;;;;;;;;;;3.79;100.00;99511.69;5092195;28;843;-69
2023/03/25 01:31:01;;;;;;;;;;;;;;;3.61;100.00;99508.66;5092125;28;870;-69
2023/03/25 01:33:27;;;;;;;;;;;;;;;3.43;100.00;99500.09;5092070;28;808;-68
2023/03/25 01:35:53;;;;;;;;;;;;;;;3.34;100.00;99494.09;5092052;28;854;-67
2023/03/25 01:38:20;;;;;;;;;;;;;;;3.36;100.00;99495.31;5092034;28;909;-67
2023/03/25 01:40:46;;;;;;;;;;;;;;;3.40;100.00;99489.91;5091845;28;1889;-68
2023/03/25 01:43:14;;;;;;;;;;;;;;;3.52;100.00;99488.94;5091965;28;854;-67
2023/03/25 01:45:40;;;;;;;;;;;;;;;3.48;100.00;99488.91;5091987;28;910;-67
2023/03/25 01:48:10;;;;;;;;;;;;;;;3.41;100.00;99478.59;5091917;28;855;-67
2023/03/25 01:50:40;;;;;;;;;;;;;;;3.31;100.00;99481.94;5091832;28;870;-67
2023/03/25 01:53:08;;;;;;;;;;;;;;;3.15;100.00;99482.00;5091670;28;840;-67
2023/03/25 01:55:35;;;;;;;;;;;;;;;3.04;100.00;99478.28;5091782;28;827;-67
2023/03/25 01:58:04;;;;;;;;;;;;;;;2.98;100.00;99475.03;5091957;28;1198;-67
2023/03/25 02:00:31;;;;;;;;;;;;;;;3.00;100.00;99472.75;5091913;28;1889;-67
2023/03/25 02:02:58;;;;;;;;;;;;;;;3.09;100.00;99466.28;5091862;28;835;-68
2023/03/25 02:05:48;;;;;;;;;;;;;;;3.09;100.00;99461.59;5091856;28;896;-67
2023/03/25 02:08:14;;;;;;;;;;;;;;;3.13;100.00;99462.47;5080795;28;1031;-67
2023/03/25 02:10:44;;;;;;;;;;;;;;;3.15;100.00;99456.66;5091253;28;1088;-66
2023/03/25 02:13:10;;;;;;;;;;;;;;;3.15;100.00;99459.38;5091580;28;915;-67
2023/03/25 02:15:54;;;;;;;;;;;;;;;3.19;100.00;99460.25;5091523;28;828;-67
2023/03/25 02:18:29;;;;;;;;;;;;;;;3.17;100.00;99462.53;5091799;28;851;-66
2023/03/25 02:21:10;;;;;;;;;;;;;;;3.02;100.00;99470.44;5091477;28;2012;-67
2023/03/25 02:23:40;;;;;;;;;;;;;;;2.89;100.00;99455.38;5091629;28;898;-69
2023/03/25 02:26:09;;;;;;;;;;;;;;;2.87;100.00;99457.66;5091494;28;835;-69
2023/03/25 02:28:46;;;;;;;;;;;;;;;2.85;100.00;99452.56;5073247;28;1164;-69
2023/03/25 02:31:15;;;;;;;;;;;;;;;2.76;100.00;99453.94;5091586;28;843;-68
2023/03/25 02:33:56;;;;;;;;;;;;;;;2.64;100.00;99447.44;5073187;28;1509;-68
2023/03/25 02:36:44;;;;;;;;;;;;;;;2.60;100.00;99443.88;5091371;28;812;-67
2023/03/25 02:39:13;;;;;;;;;;;;;;;2.65;100.00;99451.75;5091235;28;1951;-68
2023/03/25 02:41:45;;;;;;;;;;;;;;;2.64;100.00;99450.16;5091331;28;883;-68
2023/03/25 02:44:33;;;;;;;;;;;;;;;2.63;100.00;99445.09;5073171;28;1191;-68
2023/03/25 02:47:03;;;;;;;;;;;;;;;2.48;100.00;99444.00;5091282;28;804;-66
2023/03/25 02:49:31;;;;;;;;;;;;;;;2.42;100.00;99435.28;5091724;28;824;-66
2023/03/25 02:52:27;;;;;;;;;;;;;;;2.33;100.00;99437.44;5091358;28;890;-66
2023/03/25 02:55:00;;;;;;;;;;;;;;;2.54;100.00;99436.28;5074254;28;1383;-66
2023/03/25 02:57:27;;;;;;;;;;;;;;;2.69;100.00;99430.00;5091162;28;835;-67
2023/03/25 02:59:54;;;;;;;;;;;;;;;2.73;100.00;99422.69;5091027;28;1948;-66
2023/03/25 03:02:24;;;;;;;;;;;;;;;2.65;100.00;99426.41;5091095;28;867;-67
2023/03/25 03:04:51;;;;;;;;;;;;;;;2.57;100.00;99424.69;5091105;28;842;-66
2023/03/25 03:07:26;;;;;;;;;;;;;;;2.53;100.00;99421.09;5091052;28;896;-66
2023/03/25 03:09:59;;;;;;;;;;;;;;;2.62;100.00;99422.47;5090926;28;1158;-67
2023/03/25 03:12:40;;;;;;;;;;;;;;;2.71;100.00;99427.72;5072938;28;899;-67
2023/03/25 03:15:25;;;;;;;;;;;;;;;2.89;100.00;99430.81;5091064;28;831;-67
2023/03/25 03:18:18;;;;;;;;;;;;;;;2.88;100.00;99423.78;5091447;28;883;-67
2023/03/25 03:21:05;;;;;;;;;;;;;;;2.79;100.00;99421.22;5060378;28;1913;-66
2023/03/25 03:23:35;;;;;;;;;;;;;;;2.74;100.00;99416.06;5079563;28;1223;-69
2023/03/25 03:26:15;;;;;;;;;;;;;;;2.78;100.00;99427.06;5094497;28;858;-67
2023/03/25 03:28:47;;;;;;;;;;;;;;;2.74;100.00;99423.47;5094822;28;854;-68
2023/03/25 03:31:23;;;;;;;;;;;;;;;2.65;100.00;99427.22;5094469;28;815;-68
2023/03/25 03:33:52;;;;;;;;;;;;;;;2.59;100.00;99428.63;5094336;28;844;-68
2023/03/25 03:36:21;;;;;;;;;;;;;;;2.56;100.00;99423.09;5076066;28;1420;-68
2023/03/25 03:38:55;;;;;;;;;;;;;;;2.54;100.00;99428.94;5094553;28;819;-68
2023/03/25 03:41:23;;;;;;;;;;;;;;;2.68;100.00;99422.19;5094205;28;1949;-69
2023/03/25 03:43:55;;;;;;;;;;;;;;;2.75;100.00;99420.41;5094142;28;819;-69
2023/03/25 03:46:23;;;;;;;;;;;;;;;2.71;100.00;99424.19;5075978;28;1373;-68
2023/03/25 03:48:54;;;;;;;;;;;;;;;2.62;100.00;99416.22;5094046;28;859;-68
2023/03/25 03:51:31;;;;;;;;;;;;;;;2.61;100.00;99420.88;5093953;28;918;-69
2023/03/25 03:53:59;;;;;;;;;;;;;;;2.64;100.00;99425.59;5094039;28;831;-66
2023/03/25 03:56:37;;;;;;;;;;;;;;;2.59;100.00;99416.94;5094037;28;824;-66
2023/03/25 03:59:09;;;;;;;;;;;;;;;2.54;100.00;99418.00;5093843;28;827;-67
2023/03/25 04:01:44;;;;;;;;;;;;;;;2.57;100.00;99416.50;5094183;28;855;-66
2023/03/25 04:04:33;;;;;;;;;;;;;;;2.64;100.00;99420.16;5093787;28;819;-69
2023/03/25 04:07:14;;;;;;;;;;;;;;;2.62;100.00;99425.22;5093878;28;907;-66
2023/03/25 04:09:53;;;;;;;;;;;;;;;2.49;100.00;99414.75;5075595;28;1203;-68
2023/03/25 04:12:36;;;;;;;;;;;;;;;2.42;100.00;99415.41;5052140;28;836;-66
2023/03/25 04:15:05;;;;;;;;;;;;;;;2.42;100.00;99418.91;5053399;28;902;-68
2023/03/25 04:17:34;;;;;;;;;;;;;;;2.52;100.00;99414.84;5053405;28;887;-68
2023/03/25 04:20:05;;;;;;;;;;;;;;;2.53;100.00;99410.97;5053263;28;1906;-67
2023/03/25 04:22:32;;;;;;;;;;;;;;;2.56;100.00;99415.72;5053147;28;840;-67
2023/03/25 04:24:59;;;;;;;;;;;;;;;2.59;100.00;99417.72;5053141;28;910;-69
2023/03/25 04:27:31;;;;;;;;;;;;;;;2.65;100.00;99410.84;5053196;28;832;-67
2023/03/25 04:29:57;;;;;;;;;;;;;;;2.74;100.00;99413.34;5053224;28;905;-66
2023/03/25 04:32:26;;;;;;;;;;;;;;;2.85;100.00;99411.63;5053348;28;816;-66
2023/03/25 04:34:56;;;;;;;;;;;;;;;3.00;100.00;99418.13;5052946;28;878;-67
2023/03/25 04:37:24;;;;;;;;;;;;;;;3.10;100.00;99414.03;5053065;28;831;-66
2023/03/25 04:39:52;;;;;;;;;;;;;;;3.21;100.00;99425.16;5052873;28;1901;-67
2023/03/25 04:42:19;;;;;;;;;;;;;;;3.37;100.00;99414.94;5052819;28;871;-67
2023/03/25 04:44:45;;;;;;;;;;;;;;;3.55;100.00;99412.50;5051516;28;1463;-69
2023/03/25 04:47:17;;;;;;;;;;;;;;;3.87;100.00;99418.50;5052830;28;925;-67
2023/03/25 04:49:43;;;;;;;;;;;;;;;4.21;100.00;99418.63;5051532;28;1208;-69
2023/03/25 04:52:10;;;;;;;;;;;;;;;4.22;100.00;99414.72;5052543;28;878;-68
2023/03/25 04:54:38;;;;;;;;;;;;;;;4.16;100.00;99418.13;5052674;28;972;-68
2023/03/25 04:57:07;;;;;;;;;;;;;;;4.17;100.00;99417.78;5052585;28;894;-69
2023/03/25 04:59:34;;;;;;;;;;;;;;;4.52;100.00;99402.22;5052534;28;1910;-66
2023/03/25 05:02:01;;;;;;;;;;;;;;;4.83;100.00;99403.78;5052478;28;861;-67
2023/03/25 05:04:28;;;;;;;;;;;;;;;5.08;100.00;99407.59;5052521;28;934;-67
2023/03/25 05:06:56;;;;;;;;;;;;;;;5.57;100.00;99415.88;5051081;28;1271;-68
2023/03/25 05:09:23;;;;;;;;;;;;;;;5.99;100.00;99412.72;5052636;28;993;-68
2023/03/25 05:11:51;;;;;;;;;;;;;;;6.04;100.00;99417.06;5085617;28;1196;-68
2023/03/25 05:14:19;;;;;;;;;;;;;;;6.01;100.00;99426.84;5092573;28;902;-69
2023/03/25 05:16:46;;;;;;;;;;;;;;;6.00;100.00;99427.25;5092305;28;878;-67
2023/03/25 05:19:13;;;;;;;;;;;;;;;6.01;100.00;99426.84;5092273;28;1981;-67
2023/03/25 05:21:41;;;;;;;;;;;;;;;6.18;100.00;99417.16;5092189;28;863;-69
2023/03/25 05:24:09;;;;;;;;;;;;;;;6.32;100.00;99411.78;5092582;28;824;-67
2023/03/25 05:26:36;;;;;;;;;;;;;;;6.54;100.00;99414.66;5092225;28;824;-67
2023/03/25 05:29:04;;;;;;;;;;;;;;;7.14;100.00;99419.56;5092215;28;894;-67
2023/03/25 05:31:31;;;;;;;;;;;;;;;8.11;100.00;99421.66;5092097;28;831;-66
2023/03/25 05:33:57;;;;;;;;;;;;;;;8.95;100.00;99421.81;5092080;28;887;-67
2023/03/25 05:36:25;;;;;;;;;;;;;;;9.36;100.00;99418.44;5092059;28;824;-68
2023/03/25 05:38:55;;;;;;;;;;;;;;;9.53;100.00;99413.22;5092019;28;934;-68
2023/03/25 05:41:31;;;;;;;;;;;;;;;9.38;100.00;99418.06;5092076;28;1874;-68
2023/03/25 05:43:59;;;;;;;;;;;;;;;9.08;100.00;99422.16;5092018;28;926;-68
2023/03/25 05:46:27;;;;;;;;;;;;;;;8.97;100.00;99416.69;5091490;28;819;-68
2023/03/25 05:48:54;;;;;;;;;;;;;;;9.22;100.00;99418.56;5092072;28;867;-68
2023/03/25 05:51:21;;;;;;;;;;;;;;;9.54;100.00;99421.13;5092040;28;879;-68
2023/03/25 05:53:50;;;;;;;;;;;;;;;9.82;100.00;99409.06;5091772;28;852;-68
2023/03/25 05:56:18;;;;;;;;;;;;;;;9.92;100.00;99403.84;5091837;28;824;-67
2023/03/25 05:58:48;;;;;;;;;;;;;;;10.33;100.00;99403.13;5091725;28;897;-67
2023/03/25 06:01:14;;;;;;;;;;;;;;;11.06;100.00;99404.63;5091549;28;1948;-67
2023/03/25 06:03:42;;;;;;;;;;;;;;;11.47;100.00;99400.88;5091649;28;804;-67
2023/03/25 06:06:12;;;;;;;;;;;;;;;11.26;100.00;99401.19;5091564;28;875;-67
2023/03/25 06:08:40;;;;;;;;;;;;;;;10.69;100.00;99397.19;5091902;28;848;-67
2023/03/25 06:11:08;;;;;;;;;;;;;;;10.48;100.00;99401.78;5091547;28;1342;-67
2023/03/25 06:13:37;;;;;;;;;;;;;;;11.21;100.00;99405.22;5091539;28;918;-67
2023/03/25 06:16:04;;;;;;;;;;;;;;;12.14;100.00;99414.06;5091590;28;903;-67
2023/03/25 06:18:31;;;;;;;;;;;;;;;12.20;100.00;99410.41;5091803;28;902;-67
2023/03/25 06:20:58;;;;;;;;;;;;;;;12.08;100.00;99413.00;5091325;28;1905;-67
2023/03/25 06:23:25;;;;;;;;;;;;;;;12.16;100.00;99408.91;5073315;28;1220;-67
2023/03/25 06:25:51;;;;;;;;;;;;;;;12.41;100.00;99412.00;5091461;28;827;-68
2023/03/25 06:28:18;;;;;;;;;;;;;;;12.99;100.00;99419.19;5091396;28;895;-66
2023/03/25 06:30:45;;;;;;;;;;;;;;;13.88;100.00;99406.09;5091521;28;960;-66
2023/03/25 06:33:12;;;;;;;;;;;;;;;14.95;100.00;99401.66;5091426;28;863;-67
2023/03/25 06:35:41;;;;;;;;;;;;;;;15.44;100.00;99395.03;5091349;28;891;-67
2023/03/25 06:38:12;;;;;;;;;;;;;;;15.52;100.00;99408.31;5091365;28;895;-66
2023/03/25 06:40:38;;;;;;;;;;;;;;;15.19;100.00;99410.53;5073059;28;1959;-67
2023/03/25 06:46:25;;;;;;;;;;;;;;;12.85;100.00;99411.97;5091260;28;610;-67
2023/03/25 06:48:52;;;;;;;;;;;;;;;13.42;100.00;99413.53;5091198;28;831;-67
2023/03/25 06:51:20;;;;;;;;;;;;;;;14.47;100.00;99409.75;5091255;28;926;-67
2023/03/25 06:53:47;;;;;;;;;;;;;;;14.85;100.00;99411.09;5091705;28;776;-68
2023/03/25 06:56:14;;;;;;;;;;;;;;;15.02;100.00;99411.81;5091939;28;827;-67
2023/03/25 06:58:41;;;;;;;;;;;;;;;14.86;100.00;99412.69;5094653;28;869;-68
2023/03/25 07:01:07;;;;;;;;;;;;;;;14.23;100.00;99408.38;5095771;28;1959;-68
2023/03/25 07:03:35;;;;;;;;;;;;;;;13.57;100.00;99418.75;5095499;28;815;-67
2023/03/25 07:06:01;;;;;;;;;;;;;;;13.21;100.00;99419.53;5095058;28;1437;-66
2023/03/25 07:08:28;;;;;;;;;;;;;;;13.05;100.00;99417.47;5095151;28;883;-67
2023/03/25 07:11:01;;;;;;;;;;;;;;;13.57;100.00;99425.09;5094414;28;1262;-68
2023/03/25 07:13:27;;;;;;;;;;;;;;;14.44;100.00;99415.38;5094816;28;867;-68
2023/03/25 07:15:57;;;;;;;;;;;;;;;15.39;100.00;99415.88;5094834;28;815;-67
2023/03/25 07:18:22;;;;;;;;;;;;;;;16.11;100.00;99408.03;5094578;28;828;-67
2023/03/25 07:20:49;;;;;;;;;;;;;;;16.64;98.63;99401.81;5094596;28;1909;-68
2023/03/25 07:23:15;;;;;;;;;;;;;;;16.99;97.49;99407.34;5094608;28;914;-68
2023/03/25 07:25:42;;;;;;;;;;;;;;;17.48;95.05;99409.47;5094763;28;867;-69
2023/03/25 07:28:08;;;;;;;;;;;;;;;17.74;94.48;99405.19;5094555;28;902;-69
2023/03/25 07:30:35;;;;;;;;;;;;;;;18.05;92.16;99412.78;5094529;28;863;-69
2023/03/25 07:33:02;;;;;;;;;;;;;;;18.42;91.52;99398.03;5076236;28;872;-69
2023/03/25 07:35:37;;;;;;;;;;;;;;;18.23;93.59;99402.84;5094436;28;887;-69
2023/03/25 07:38:04;;;;;;;;;;;;;;;18.58;91.73;99383.72;5076152;28;1508;-66
2023/03/25 07:40:30;;;;;;;;;;;;;;;19.08;92.04;99395.50;5094456;28;1889;-68
2023/03/25 07:42:57;;;;;;;;;;;;;;;19.69;90.95;99391.81;5094501;28;852;-70
2023/03/25 07:45:23;;;;;;;;;;;;;;;19.62;84.37;99394.97;5094501;28;843;-69
2023/03/25 07:47:51;;;;;;;;;;;;;;;19.25;81.07;99393.09;5094037;28;902;-70
2023/03/25 07:50:19;;;;;;;;;;;;;;;19.15;82.59;99397.94;5094256;28;859;-66
2023/03/25 07:52:46;;;;;;;;;;;;;;;19.35;85.38;99389.03;5094168;28;855;-68
2023/03/25 07:55:13;;;;;;;;;;;;;;;19.50;82.76;99386.31;5093999;28;911;-68
2023/03/25 07:57:43;;;;;;;;;;;;;;;19.43;84.32;99389.44;5093962;28;903;-69
2023/03/25 08:00:10;;;;;;;;;;;;;;;19.39;83.69;99391.63;5093868;28;1917;-68
2023/03/25 08:02:38;;;;;;;;;;;;;;;19.19;78.97;99383.78;5093797;28;820;-68
2023/03/25 08:05:05;;;;;;;;;;;;;;;19.32;84.07;99381.56;5093863;28;863;-67
2023/03/25 08:07:32;;;;;;;;;;;;;;;19.52;80.96;99374.59;5093602;28;828;-67
2023/03/25 08:09:59;;;;;;;;;;;;;;;19.84;80.87;99369.47;5093274;28;1362;-68
2023/03/25 08:12:25;;;;;;;;;;;;;;;19.69;79.25;99370.16;5093694;28;832;-68
2023/03/25 08:14:52;;;;;;;;;;;;;;;19.96;80.77;99366.44;5093587;28;835;-68
2023/03/25 08:17:18;;;;;;;;;;;;;;;19.81;74.05;99364.84;5093435;28;872;-68
2023/03/25 08:19:47;;;;;;;;;;;;;;;19.28;73.80;99358.53;5093446;28;1979;-67
2023/03/25 08:22:14;;;;;;;;;;;;;;;19.40;78.38;99359.56;5075252;28;1360;-66
2023/03/25 08:24:40;;;;;;;;;;;;;;;19.89;75.48;99352.03;5093411;28;918;-66
2023/03/25 08:27:08;;;;;;;;;;;;;;;20.15;76.90;99350.25;5093366;28;863;-65
2023/03/25 08:29:34;;;;;;;;;;;;;;;19.99;75.15;99347.88;5075125;28;1207;-65
2023/03/25 08:32:00;;;;;;;;;;;;;;;19.76;78.86;99352.25;5093442;28;867;-66
2023/03/25 08:34:28;;;;;;;;;;;;;;;19.94;76.67;99351.34;5093448;28;831;-67
2023/03/25 08:36:55;;;;;;;;;;;;;;;19.98;74.24;99344.31;5093192;28;914;-66
2023/03/25 08:39:28;;;;;;;;;;;;;;;19.97;76.91;99341.97;5093071;28;1894;-65
2023/03/25 08:41:57;;;;;;;;;;;;;;;20.10;74.59;99336.09;5093109;28;843;-66
2023/03/25 08:44:24;;;;;;;;;;;;;;;19.89;72.21;99335.19;5093441;28;842;-67
2023/03/25 08:46:51;;;;;;;;;;;;;;;19.92;73.41;99335.00;5074930;28;1325;-69
2023/03/25 08:49:18;;;;;;;;;;;;;;;19.97;72.53;99330.75;5093503;28;854;-69
2023/03/25 08:51:44;;;;;;;;;;;;;;;19.97;75.18;99336.34;5093109;28;851;-68
2023/03/25 08:54:11;;;;;;;;;;;;;;;20.11;74.78;99327.22;5093289;28;1047;-68
2023/03/25 08:56:37;;;;;;;;;;;;;;;20.28;73.99;99326.78;5092798;28;839;-67
2023/03/25 08:59:04;;;;;;;;;;;;;;;19.94;74.89;99314.88;5092746;28;903;-68
2023/03/25 09:01:30;;;;;;;;;;;;;;;19.91;73.76;99319.44;5092627;28;1894;-69
2023/03/25 09:03:56;;;;;;;;;;;;;;;20.04;73.46;99316.38;5074507;28;1306;-69
2023/03/25 09:06:23;;;;;;;;;;;;;;;20.27;73.58;99316.78;5092594;28;857;-69
2023/03/25 09:08:49;;;;;;;;;;;;;;;20.21;73.04;99319.50;5092506;28;997;-68
2023/03/25 09:11:16;;;;;;;;;;;;;;;20.15;71.26;99313.78;5092127;28;1261;-69
2023/03/25 09:13:43;;;;;;;;;;;;;;;19.72;72.51;99310.38;5092482;28;839;-70
2023/03/25 09:16:10;;;;;;;;;;;;;;;19.46;74.09;99306.44;5074185;28;1428;-66
2023/03/25 09:18:37;;;;;;;;;;;;;;;19.11;71.66;99296.50;5092320;28;1174;-67
2023/03/25 09:21:08;;;;;;;;;;;;;;;18.91;73.94;99290.69;5091475;28;1909;-70
2023/03/25 09:23:34;;;;;;;;;;;;;;;19.04;75.99;99298.88;5074452;28;1216;-69
2023/03/25 09:26:06;;;;;;;;;;;;;;;19.31;71.00;99293.16;5092407;28;851;-69
2023/03/25 09:28:33;;;;;;;;;;;;;;;19.13;71.17;99293.22;5092259;28;823;-69
2023/03/25 09:31:00;;;;;;;;;;;;;;;19.07;74.54;99293.09;5092195;28;886;-69
2023/03/25 09:33:29;;;;;;;;;;;;;;;19.09;71.64;99287.03;5092223;28;914;-70
2023/03/25 09:35:56;;;;;;;;;;;;;;;19.24;75.29;99285.06;5092085;28;847;-69
2023/03/25 09:38:22;;;;;;;;;;;;;;;19.49;73.37;99283.09;5092001;28;942;-69
2023/03/25 10:09:22;;;;;;;;;;;;;;;19.41;73.02;99237.06;5969156;22;1497;-56
2023/03/25 10:11:51;;;;;;;;;;;;;;;19.67;69.70;99226.91;5071489;28;887;-56
2023/03/25 10:14:26;;;;;;;;;;;;;;;19.59;69.47;99222.91;5070220;28;1424;-56
2023/03/25 10:17:10;;;;;;;;;;;;;;;19.57;70.19;99223.38;5071340;28;871;-56
2023/03/25 10:19:49;;;;;;;;;;;;;;;19.78;68.28;99224.34;5071343;28;1917;-55
2023/03/25 10:22:25;;;;;;;;;;;;;;;20.07;69.03;99213.66;5071377;28;918;-56
2023/03/25 10:25:02;;;;;;;;;;;;;;;19.83;67.00;99210.91;5071340;28;834;-56
2023/03/25 10:27:35;;;;;;;;;;;;;;;20.14;66.46;99194.44;5071575;28;879;-56
2023/03/25 10:30:13;;;;;;;;;;;;;;;20.34;67.62;99190.94;5071270;28;843;-56
2023/03/25 10:32:40;;;;;;;;;;;;;;;20.70;65.68;99188.97;5090260;28;1213;-56
2023/03/25 10:35:10;;;;;;;;;;;;;;;20.64;65.81;99179.69;5075319;28;839;-56
2023/03/25 10:37:40;;;;;;;;;;;;;;;20.68;64.31;99176.69;5076000;28;822;-56
2023/03/25 10:40:17;;;;;;;;;;;;;;;20.64;63.12;99176.88;5075158;28;1890;-56
2023/03/25 10:42:57;;;;;;;;;;;;;;;20.74;56.45;99164.28;5075236;28;831;-56
2023/03/25 10:45:24;;;;;;;;;;;;;;;20.74;57.29;99166.28;5075198;28;870;-56
2023/03/25 10:47:54;;;;;;;;;;;;;;;20.86;56.57;99167.25;5075062;28;855;-56
2023/03/25 10:50:20;;;;;;;;;;;;;;;20.78;56.05;99162.03;5073798;28;922;-56
2023/03/25 10:52:50;;;;;;;;;;;;;;;20.71;56.56;99154.00;5074897;28;898;-56
2023/03/25 10:55:31;;;;;;;;;;;;;;;20.56;55.23;99156.81;5074867;28;827;-56
2023/03/25 10:57:58;;;;;;;;;;;;;;;20.69;57.22;99152.97;5074858;28;824;-56
2023/03/25 11:00:26;;;;;;;;;;;;;;;20.90;56.57;99142.53;5074817;28;1947;-56
2023/03/25 11:02:54;;;;;;;;;;;;;;;21.19;54.50;99145.22;5074748;28;921;-55
2023/03/25 11:05:22;;;;;;;;;;;;;;;21.50;54.64;99129.75;5074710;28;819;-56
2023/03/25 11:07:55;;;;;;;;;;;;;;;21.48;52.15;99109.81;5074641;28;1027;-56
2023/03/25 11:10:23;;;;;;;;;;;;;;;21.84;53.34;99118.09;5092479;28;1287;-56
2023/03/25 11:13:03;;;;;;;;;;;;;;;22.03;53.20;99117.25;5115239;28;803;-56
2023/03/25 11:15:33;;;;;;;;;;;;;;;22.41;53.11;99114.50;5115196;28;866;-56
2023/03/25 11:18:04;;;;;;;;;;;;;;;22.45;52.23;99105.81;5115150;28;893;-56
2023/03/25 11:20:44;;;;;;;;;;;;;;;22.52;52.14;99103.31;5114976;28;1914;-56
2023/03/25 11:23:29;;;;;;;;;;;;;;;22.74;52.12;99099.09;5115087;28;890;-56
2023/03/25 11:26:00;;;;;;;;;;;;;;;23.06;50.24;99085.69;5115265;28;803;-56
2023/03/25 11:28:38;;;;;;;;;;;;;;;23.33;49.42;99084.25;5114987;28;893;-56
2023/03/25 11:31:17;;;;;;;;;;;;;;;22.88;47.29;99092.50;5115074;28;905;-56
2023/03/25 11:33:45;;;;;;;;;;;;;;;22.87;47.74;99079.69;5114877;28;898;-56
2023/03/25 11:36:24;;;;;;;;;;;;;;;22.75;47.27;99073.25;5114870;28;881;-56
2023/03/25 11:38:55;;;;;;;;;;;;;;;23.07;46.67;99073.16;5114635;28;815;-56
2023/03/25 11:41:22;;;;;;;;;;;;;;;23.07;44.55;99070.34;5114710;28;1953;-56
2023/03/25 11:43:49;;;;;;;;;;;;;;;22.95;44.56;99065.91;5113884;28;811;-56
2023/03/25 11:46:17;;;;;;;;;;;;;;;22.84;44.41;99067.38;5114696;28;827;-56
2023/03/25 11:48:48;;;;;;;;;;;;;;;23.05;45.52;99066.50;5114610;28;878;-56
2023/03/25 11:51:20;;;;;;;;;;;;;;;22.94;45.03;99053.88;5114482;28;950;-56
2023/03/25 11:54:09;;;;;;;;;;;;;;;23.24;44.71;99051.44;5114517;28;815;-56
2023/03/25 11:56:40;;;;;;;;;;;;;;;23.47;43.42;99045.06;5103217;27;1760;-56
2023/03/25 11:59:25;;;;;;;;;;;;;;;23.56;44.84;99050.47;5114381;28;819;-56
2023/03/25 12:02:00;;;;;;;;;;;;;;;23.71;43.38;99048.19;5114318;28;839;-56
2023/03/25 12:04:26;;;;;;;;;;;;;;;23.67;42.76;99042.03;5114548;28;846;-56
2023/03/25 12:06:54;;;;;;;;;;;;;;;23.72;42.01;99041.25;5114463;28;862;-56
2023/03/25 12:09:21;;;;;;;;;;;;;;;23.88;41.88;99039.00;5114314;28;1184;-56
2023/03/25 12:11:50;;;;;;;;;;;;;;;24.02;42.36;99035.88;5114329;28;843;-56
2023/03/25 12:14:28;;;;;;;;;;;;;;;24.13;42.40;99035.13;5114152;28;815;-56
2023/03/25 12:17:04;;;;;;;;;;;;;;;24.29;41.66;99032.78;5114162;28;811;-56
2023/03/25 12:19:37;;;;;;;;;;;;;;;24.36;41.00;99029.44;5114006;28;1965;-56
2023/03/25 12:22:16;;;;;;;;;;;;;;;24.08;39.79;99027.41;5113980;28;807;-56
2023/03/25 12:25:01;;;;;;;;;;;;;;;24.21;41.09;99024.06;5114268;28;858;-56
2023/03/25 12:27:30;;;;;;;;;;;;;;;24.69;39.81;99024.97;5113767;28;890;-56
2023/03/25 12:30:15;;;;;;;;;;;;;;;24.81;39.16;99015.94;5112513;28;2257;-56
2023/03/25 12:32:44;;;;;;;;;;;;;;;25.13;39.03;99015.53;5113986;28;823;-56
2023/03/25 12:35:13;;;;;;;;;;;;;;;25.31;37.95;99014.19;5113719;27;803;-56
2023/03/25 12:37:57;;;;;;;;;;;;;;;25.21;38.12;99007.31;5113899;28;807;-56
2023/03/25 12:40:31;;;;;;;;;;;;;;;25.05;38.58;99012.50;5113482;28;1921;-56
2023/03/25 12:43:06;;;;;;;;;;;;;;;25.19;37.61;99004.97;5113568;28;807;-57
2023/03/25 12:45:42;;;;;;;;;;;;;;;25.35;37.42;98996.91;5113458;28;815;-56
2023/03/25 12:48:21;;;;;;;;;;;;;;;25.51;35.30;98992.44;5112165;28;1170;-56
2023/03/25 12:50:57;;;;;;;;;;;;;;;25.87;35.87;98988.28;5113259;28;898;-56
2023/03/25 12:53:38;;;;;;;;;;;;;;;26.43;36.26;98989.78;5113295;28;893;-56
2023/03/25 12:56:22;;;;;;;;;;;;;;;26.39;38.27;98989.31;5112108;28;822;-56
2023/03/25 12:59:06;;;;;;;;;;;;;;;26.27;39.75;98988.69;5113215;28;823;-57
2023/03/25 13:01:41;;;;;;;;;;;;;;;26.11;40.15;98983.97;5113148;28;1885;-57
2023/03/25 13:04:07;;;;;;;;;;;;;;;25.57;41.41;98976.22;5111802;28;1281;-56
2023/03/25 13:06:57;;;;;;;;;;;;;;;25.29;41.42;98971.53;5112935;28;835;-56
2023/03/25 13:09:43;;;;;;;;;;;;;;;24.97;41.94;98977.59;5112839;28;1914;-56
2023/03/25 13:12:42;;;;;;;;;;;;;;;24.84;42.34;98969.69;5111781;28;1424;-56
2023/03/25 13:15:17;;;;;;;;;;;;;;;24.79;43.32;98970.50;5068194;28;1271;-56
2023/03/25 13:17:47;;;;;;;;;;;;;;;24.58;43.70;98969.28;5112868;28;854;-56
2023/03/25 13:20:14;;;;;;;;;;;;;;;24.49;44.01;98975.25;5112710;28;1905;-56
2023/03/25 13:22:43;;;;;;;;;;;;;;;24.63;43.64;98972.09;5112743;28;894;-56
2023/03/25 13:25:21;;;;;;;;;;;;;;;24.92;43.99;98969.16;5112696;28;819;-56
2023/03/25 13:27:49;;;;;;;;;;;;;;;24.98;42.66;98962.16;5112653;28;843;-56
2023/03/25 13:30:27;;;;;;;;;;;;;;;24.93;42.83;98974.28;5112642;28;791;-56
2023/03/25 13:32:56;;;;;;;;;;;;;;;24.90;43.06;98966.84;5112625;28;870;-56
2023/03/25 13:35:42;;;;;;;;;;;;;;;24.35;43.32;98962.97;5112409;28;866;-56
2023/03/25 13:38:16;;;;;;;;;;;;;;;24.01;43.82;98966.63;5112444;28;854;-56
2023/03/25 13:40:53;;;;;;;;;;;;;;;23.72;44.60;98958.66;5112426;28;1882;-56
2023/03/25 13:43:29;;;;;;;;;;;;;;;23.47;44.68;98954.81;5112388;28;850;-56
2023/03/25 13:46:05;;;;;;;;;;;;;;;23.20;45.55;98957.13;5112684;28;863;-56
2023/03/25 13:49:04;;;;;;;;;;;;;;;23.20;45.64;98963.53;5112256;28;890;-56
2023/03/25 13:51:30;;;;;;;;;;;;;;;23.11;45.72;98958.13;5056553;28;1326;-56
2023/03/25 13:54:16;;;;;;;;;;;;;;;23.10;45.93;98956.59;5110940;28;1554;-56